sensor_id;sensor_type;location;lat;lon;timestamp;P1;durP1;ratioP1;P2;durP2;ratioP2
39300;SDS011;25019;42.626;23.380;2024-02-16T00:00:45;10.50;;;6.07;;
39300;SDS011;25019;42.626;23.380;2024-02-16T00:03:12;8.97;;;5.33;;
39300;SDS011;25019;42.626;23.380;2024-02-16T00:05:38;7.97;;;5.17;;
39300;SDS011;25019;42.626;23.380;2024-02-16T00:08:04;10.17;;;5.40;;
39300;SDS011;25019;42.626;23.380;2024-02-16T00:10:30;8.47;;;5.30;;
39300;SDS011;25019;42.626;23.380;2024-02-16T00:12:56;7.03;;;5.03;;
39300;SDS011;25019;42.626;23.380;2024-02-16T00:15:22;10.43;;;6.33;;
39300;SDS011;25019;42.626;23.380;2024-02-16T00:17:47;10.13;;;6.47;;
39300;SDS011;25019;42.626;23.380;2024-02-16T00:20:13;9.70;;;6.60;;
39300;SDS011;25019;42.626;23.380;2024-02-16T00:22:39;11.20;;;6.80;;
39300;SDS011;25019;42.626;23.380;2024-02-16T00:25:05;9.17;;;5.80;;
39300;SDS011;25019;42.626;23.380;2024-02-16T00:27:32;12.93;;;7.27;;
39300;SDS011;25019;42.626;23.380;2024-02-16T00:29:57;11.07;;;6.07;;
39300;SDS011;25019;42.626;23.380;2024-02-16T00:32:23;12.47;;;7.43;;
39300;SDS011;25019;42.626;23.380;2024-02-16T00:34:53;10.53;;;6.20;;
39300;SDS011;25019;42.626;23.380;2024-02-16T00:37:19;13.47;;;6.83;;
39300;SDS011;25019;42.626;23.380;2024-02-16T00:39:45;10.80;;;7.17;;
39300;SDS011;25019;42.626;23.380;2024-02-16T00:42:10;9.80;;;6.90;;
39300;SDS011;25019;42.626;23.380;2024-02-16T00:44:36;10.97;;;7.13;;
39300;SDS011;25019;42.626;23.380;2024-02-16T00:47:02;9.27;;;6.07;;
39300;SDS011;25019;42.626;23.380;2024-02-16T00:49:31;16.53;;;7.33;;
39300;SDS011;25019;42.626;23.380;2024-02-16T00:51:57;8.60;;;6.23;;
39300;SDS011;25019;42.626;23.380;2024-02-16T00:54:23;13.57;;;7.63;;
39300;SDS011;25019;42.626;23.380;2024-02-16T00:56:49;10.80;;;7.13;;
39300;SDS011;25019;42.626;23.380;2024-02-16T00:59:14;14.13;;;7.33;;
39300;SDS011;25019;42.626;23.380;2024-02-16T01:01:40;12.87;;;7.40;;
39300;SDS011;25019;42.626;23.380;2024-02-16T01:04:06;10.33;;;7.00;;
39300;SDS011;25019;42.626;23.380;2024-02-16T01:06:34;12.67;;;7.13;;
39300;SDS011;25019;42.626;23.380;2024-02-16T01:09:00;9.10;;;6.47;;
39300;SDS011;25019;42.626;23.380;2024-02-16T01:11:26;12.50;;;7.60;;
39300;SDS011;25019;42.626;23.380;2024-02-16T01:13:52;9.77;;;6.40;;
39300;SDS011;25019;42.626;23.380;2024-02-16T01:16:18;16.53;;;7.10;;
39300;SDS011;25019;42.626;23.380;2024-02-16T01:18:43;11.37;;;6.83;;
39300;SDS011;25019;42.626;23.380;2024-02-16T01:21:10;12.17;;;6.60;;
39300;SDS011;25019;42.626;23.380;2024-02-16T01:23:36;11.67;;;6.47;;
39300;SDS011;25019;42.626;23.380;2024-02-16T01:26:02;11.80;;;6.57;;
39300;SDS011;25019;42.626;23.380;2024-02-16T01:28:27;11.23;;;6.03;;
39300;SDS011;25019;42.626;23.380;2024-02-16T01:30:53;12.73;;;6.30;;
39300;SDS011;25019;42.626;23.380;2024-02-16T01:33:21;10.20;;;5.57;;
39300;SDS011;25019;42.626;23.380;2024-02-16T01:35:47;9.63;;;5.73;;
39300;SDS011;25019;42.626;23.380;2024-02-16T01:38:13;8.37;;;5.73;;
39300;SDS011;25019;42.626;23.380;2024-02-16T01:40:39;10.40;;;5.63;;
39300;SDS011;25019;42.626;23.380;2024-02-16T01:43:05;10.57;;;5.97;;
39300;SDS011;25019;42.626;23.380;2024-02-16T01:45:31;12.23;;;5.70;;
39300;SDS011;25019;42.626;23.380;2024-02-16T01:47:56;10.00;;;5.53;;
39300;SDS011;25019;42.626;23.380;2024-02-16T01:50:23;9.67;;;5.37;;
39300;SDS011;25019;42.626;23.380;2024-02-16T01:52:49;10.87;;;5.73;;
39300;SDS011;25019;42.626;23.380;2024-02-16T01:55:15;10.97;;;5.80;;
39300;SDS011;25019;42.626;23.380;2024-02-16T01:57:45;11.23;;;5.17;;
39300;SDS011;25019;42.626;23.380;2024-02-16T02:00:13;11.03;;;5.43;;
39300;SDS011;25019;42.626;23.380;2024-02-16T02:02:43;8.10;;;5.10;;
39300;SDS011;25019;42.626;23.380;2024-02-16T02:05:10;7.67;;;4.57;;
39300;SDS011;25019;42.626;23.380;2024-02-16T02:07:37;9.73;;;4.80;;
39300;SDS011;25019;42.626;23.380;2024-02-16T02:10:03;8.13;;;4.13;;
39300;SDS011;25019;42.626;23.380;2024-02-16T02:12:29;8.87;;;4.40;;
39300;SDS011;25019;42.626;23.380;2024-02-16T02:14:55;6.10;;;3.83;;
39300;SDS011;25019;42.626;23.380;2024-02-16T02:17:20;7.27;;;4.33;;
39300;SDS011;25019;42.626;23.380;2024-02-16T02:19:46;9.33;;;4.80;;
39300;SDS011;25019;42.626;23.380;2024-02-16T02:22:18;7.57;;;4.63;;
39300;SDS011;25019;42.626;23.380;2024-02-16T02:24:45;8.67;;;4.83;;
39300;SDS011;25019;42.626;23.380;2024-02-16T02:27:12;9.13;;;5.13;;
39300;SDS011;25019;42.626;23.380;2024-02-16T02:29:38;9.37;;;5.00;;
39300;SDS011;25019;42.626;23.380;2024-02-16T02:32:06;13.20;;;5.93;;
39300;SDS011;25019;42.626;23.380;2024-02-16T02:34:32;13.73;;;5.87;;
39300;SDS011;25019;42.626;23.380;2024-02-16T02:36:58;12.33;;;5.27;;
39300;SDS011;25019;42.626;23.380;2024-02-16T02:39:24;9.97;;;5.57;;
39300;SDS011;25019;42.626;23.380;2024-02-16T02:41:50;15.27;;;5.90;;
39300;SDS011;25019;42.626;23.380;2024-02-16T02:44:17;14.63;;;5.90;;
39300;SDS011;25019;42.626;23.380;2024-02-16T02:46:44;14.27;;;6.30;;
39300;SDS011;25019;42.626;23.380;2024-02-16T02:49:10;12.93;;;5.80;;
39300;SDS011;25019;42.626;23.380;2024-02-16T02:51:36;13.87;;;6.83;;
39300;SDS011;25019;42.626;23.380;2024-02-16T02:54:01;14.37;;;5.90;;
39300;SDS011;25019;42.626;23.380;2024-02-16T02:56:27;10.43;;;5.40;;
39300;SDS011;25019;42.626;23.380;2024-02-16T02:58:53;10.73;;;5.57;;
39300;SDS011;25019;42.626;23.380;2024-02-16T03:01:18;10.17;;;5.63;;
39300;SDS011;25019;42.626;23.380;2024-02-16T03:03:47;13.03;;;5.57;;
39300;SDS011;25019;42.626;23.380;2024-02-16T03:06:17;11.30;;;4.90;;
39300;SDS011;25019;42.626;23.380;2024-02-16T03:08:43;11.17;;;6.27;;
39300;SDS011;25019;42.626;23.380;2024-02-16T03:11:09;8.17;;;4.50;;
39300;SDS011;25019;42.626;23.380;2024-02-16T03:13:37;9.83;;;4.77;;
39300;SDS011;25019;42.626;23.380;2024-02-16T03:16:03;9.50;;;5.13;;
39300;SDS011;25019;42.626;23.380;2024-02-16T03:18:29;10.20;;;5.43;;
39300;SDS011;25019;42.626;23.380;2024-02-16T03:20:56;9.97;;;5.27;;
39300;SDS011;25019;42.626;23.380;2024-02-16T03:23:22;7.77;;;4.70;;
39300;SDS011;25019;42.626;23.380;2024-02-16T03:25:48;11.50;;;4.70;;
39300;SDS011;25019;42.626;23.380;2024-02-16T03:28:14;7.20;;;4.27;;
39300;SDS011;25019;42.626;23.380;2024-02-16T03:30:41;9.40;;;4.20;;
39300;SDS011;25019;42.626;23.380;2024-02-16T03:33:08;7.20;;;4.23;;
39300;SDS011;25019;42.626;23.380;2024-02-16T03:35:34;7.70;;;4.27;;
39300;SDS011;25019;42.626;23.380;2024-02-16T03:38:00;7.10;;;4.20;;
39300;SDS011;25019;42.626;23.380;2024-02-16T03:40:26;5.53;;;3.57;;
39300;SDS011;25019;42.626;23.380;2024-02-16T03:42:51;5.87;;;3.40;;
39300;SDS011;25019;42.626;23.380;2024-02-16T03:45:17;9.10;;;3.87;;
39300;SDS011;25019;42.626;23.380;2024-02-16T03:47:44;6.77;;;3.73;;
39300;SDS011;25019;42.626;23.380;2024-02-16T03:50:10;6.47;;;3.60;;
39300;SDS011;25019;42.626;23.380;2024-02-16T03:52:36;7.67;;;3.97;;
39300;SDS011;25019;42.626;23.380;2024-02-16T03:55:03;7.30;;;4.33;;
39300;SDS011;25019;42.626;23.380;2024-02-16T03:57:30;5.93;;;3.87;;
39300;SDS011;25019;42.626;23.380;2024-02-16T03:59:56;6.30;;;4.10;;
39300;SDS011;25019;42.626;23.380;2024-02-16T04:02:22;7.07;;;3.67;;
39300;SDS011;25019;42.626;23.380;2024-02-16T04:04:48;9.60;;;4.00;;
39300;SDS011;25019;42.626;23.380;2024-02-16T04:07:14;6.63;;;3.80;;
39300;SDS011;25019;42.626;23.380;2024-02-16T04:09:39;6.87;;;4.10;;
39300;SDS011;25019;42.626;23.380;2024-02-16T04:12:05;5.83;;;3.50;;
39300;SDS011;25019;42.626;23.380;2024-02-16T04:14:31;5.50;;;4.07;;
39300;SDS011;25019;42.626;23.380;2024-02-16T04:16:59;9.23;;;4.50;;
39300;SDS011;25019;42.626;23.380;2024-02-16T04:19:28;7.07;;;3.90;;
39300;SDS011;25019;42.626;23.380;2024-02-16T04:21:54;6.60;;;4.37;;
39300;SDS011;25019;42.626;23.380;2024-02-16T04:24:20;6.63;;;3.87;;
39300;SDS011;25019;42.626;23.380;2024-02-16T04:26:46;8.60;;;4.33;;
39300;SDS011;25019;42.626;23.380;2024-02-16T04:29:12;6.87;;;3.80;;
39300;SDS011;25019;42.626;23.380;2024-02-16T04:31:40;5.30;;;3.17;;
39300;SDS011;25019;42.626;23.380;2024-02-16T04:34:07;7.07;;;3.80;;
39300;SDS011;25019;42.626;23.380;2024-02-16T04:36:34;7.07;;;3.87;;
39300;SDS011;25019;42.626;23.380;2024-02-16T04:39:00;6.63;;;3.87;;
39300;SDS011;25019;42.626;23.380;2024-02-16T04:41:26;4.73;;;3.30;;
39300;SDS011;25019;42.626;23.380;2024-02-16T04:43:52;6.53;;;3.67;;
39300;SDS011;25019;42.626;23.380;2024-02-16T04:46:18;8.97;;;3.90;;
39300;SDS011;25019;42.626;23.380;2024-02-16T04:48:44;7.63;;;4.47;;
39300;SDS011;25019;42.626;23.380;2024-02-16T04:51:11;6.53;;;4.33;;
39300;SDS011;25019;42.626;23.380;2024-02-16T04:53:37;8.63;;;4.70;;
39300;SDS011;25019;42.626;23.380;2024-02-16T04:56:02;6.00;;;4.17;;
39300;SDS011;25019;42.626;23.380;2024-02-16T04:58:28;7.43;;;4.53;;
39300;SDS011;25019;42.626;23.380;2024-02-16T05:00:54;6.60;;;4.17;;
39300;SDS011;25019;42.626;23.380;2024-02-16T05:03:20;5.73;;;3.80;;
39300;SDS011;25019;42.626;23.380;2024-02-16T05:05:45;5.03;;;3.33;;
39300;SDS011;25019;42.626;23.380;2024-02-16T05:08:11;8.57;;;4.40;;
39300;SDS011;25019;42.626;23.380;2024-02-16T05:10:37;4.83;;;3.50;;
39300;SDS011;25019;42.626;23.380;2024-02-16T05:13:03;6.07;;;3.60;;
39300;SDS011;25019;42.626;23.380;2024-02-16T05:15:30;7.77;;;3.77;;
39300;SDS011;25019;42.626;23.380;2024-02-16T05:17:56;7.60;;;4.20;;
39300;SDS011;25019;42.626;23.380;2024-02-16T05:20:23;7.53;;;4.30;;
39300;SDS011;25019;42.626;23.380;2024-02-16T05:22:48;7.10;;;4.43;;
39300;SDS011;25019;42.626;23.380;2024-02-16T05:25:15;5.27;;;3.70;;
39300;SDS011;25019;42.626;23.380;2024-02-16T05:27:43;4.80;;;3.30;;
39300;SDS011;25019;42.626;23.380;2024-02-16T05:30:09;7.50;;;3.93;;
39300;SDS011;25019;42.626;23.380;2024-02-16T05:32:38;7.00;;;3.80;;
39300;SDS011;25019;42.626;23.380;2024-02-16T05:35:04;6.77;;;3.80;;
39300;SDS011;25019;42.626;23.380;2024-02-16T05:37:46;6.83;;;3.83;;
39300;SDS011;25019;42.626;23.380;2024-02-16T05:40:14;9.90;;;4.43;;
39300;SDS011;25019;42.626;23.380;2024-02-16T05:42:54;5.83;;;4.17;;
39300;SDS011;25019;42.626;23.380;2024-02-16T05:45:24;5.20;;;4.07;;
39300;SDS011;25019;42.626;23.380;2024-02-16T05:47:51;5.63;;;4.20;;
39300;SDS011;25019;42.626;23.380;2024-02-16T05:50:19;6.53;;;4.23;;
39300;SDS011;25019;42.626;23.380;2024-02-16T05:52:46;5.13;;;4.10;;
39300;SDS011;25019;42.626;23.380;2024-02-16T05:55:12;7.10;;;4.40;;
39300;SDS011;25019;42.626;23.380;2024-02-16T05:57:38;6.27;;;4.37;;
39300;SDS011;25019;42.626;23.380;2024-02-16T06:00:05;8.17;;;5.10;;
39300;SDS011;25019;42.626;23.380;2024-02-16T06:02:32;7.03;;;4.43;;
39300;SDS011;25019;42.626;23.380;2024-02-16T06:04:59;10.57;;;5.17;;
39300;SDS011;25019;42.626;23.380;2024-02-16T06:07:25;10.87;;;5.13;;
39300;SDS011;25019;42.626;23.380;2024-02-16T06:09:51;8.50;;;4.83;;
39300;SDS011;25019;42.626;23.380;2024-02-16T06:12:19;8.10;;;5.03;;
39300;SDS011;25019;42.626;23.380;2024-02-16T06:14:45;9.77;;;5.70;;
39300;SDS011;25019;42.626;23.380;2024-02-16T06:17:11;9.77;;;5.00;;
39300;SDS011;25019;42.626;23.380;2024-02-16T06:19:40;11.90;;;6.00;;
39300;SDS011;25019;42.626;23.380;2024-02-16T06:22:06;9.70;;;6.20;;
39300;SDS011;25019;42.626;23.380;2024-02-16T06:24:33;17.03;;;5.67;;
39300;SDS011;25019;42.626;23.380;2024-02-16T06:26:59;8.93;;;4.90;;
39300;SDS011;25019;42.626;23.380;2024-02-16T06:29:25;9.30;;;5.07;;
39300;SDS011;25019;42.626;23.380;2024-02-16T06:31:51;11.00;;;5.50;;
39300;SDS011;25019;42.626;23.380;2024-02-16T06:34:17;9.90;;;5.27;;
39300;SDS011;25019;42.626;23.380;2024-02-16T06:36:43;10.17;;;4.70;;
39300;SDS011;25019;42.626;23.380;2024-02-16T06:39:10;6.70;;;3.80;;
39300;SDS011;25019;42.626;23.380;2024-02-16T06:41:36;6.13;;;4.67;;
39300;SDS011;25019;42.626;23.380;2024-02-16T06:44:02;6.67;;;3.90;;
39300;SDS011;25019;42.626;23.380;2024-02-16T06:46:31;7.17;;;4.13;;
39300;SDS011;25019;42.626;23.380;2024-02-16T06:48:57;6.70;;;3.90;;
39300;SDS011;25019;42.626;23.380;2024-02-16T06:51:23;5.93;;;3.50;;
39300;SDS011;25019;42.626;23.380;2024-02-16T06:53:49;5.50;;;4.10;;
39300;SDS011;25019;42.626;23.380;2024-02-16T06:56:16;7.07;;;4.63;;
39300;SDS011;25019;42.626;23.380;2024-02-16T06:58:43;7.57;;;4.23;;
39300;SDS011;25019;42.626;23.380;2024-02-16T07:01:10;8.73;;;4.30;;
39300;SDS011;25019;42.626;23.380;2024-02-16T07:03:37;7.53;;;4.43;;
39300;SDS011;25019;42.626;23.380;2024-02-16T07:06:03;12.27;;;4.80;;
39300;SDS011;25019;42.626;23.380;2024-02-16T07:08:29;9.20;;;5.27;;
39300;SDS011;25019;42.626;23.380;2024-02-16T07:10:55;12.23;;;5.40;;
39300;SDS011;25019;42.626;23.380;2024-02-16T07:13:22;7.80;;;5.33;;
39300;SDS011;25019;42.626;23.380;2024-02-16T07:15:48;12.40;;;5.73;;
39300;SDS011;25019;42.626;23.380;2024-02-16T07:18:14;13.37;;;6.53;;
39300;SDS011;25019;42.626;23.380;2024-02-16T07:20:40;16.40;;;6.07;;
39300;SDS011;25019;42.626;23.380;2024-02-16T07:23:06;10.53;;;5.70;;
39300;SDS011;25019;42.626;23.380;2024-02-16T07:25:32;8.03;;;5.30;;
39300;SDS011;25019;42.626;23.380;2024-02-16T07:27:58;11.30;;;6.20;;
39300;SDS011;25019;42.626;23.380;2024-02-16T07:30:23;9.77;;;5.70;;
39300;SDS011;25019;42.626;23.380;2024-02-16T07:32:49;10.87;;;6.47;;
39300;SDS011;25019;42.626;23.380;2024-02-16T07:35:15;11.77;;;6.13;;
39300;SDS011;25019;42.626;23.380;2024-02-16T07:37:41;13.70;;;6.03;;
39300;SDS011;25019;42.626;23.380;2024-02-16T07:40:08;11.37;;;6.30;;
39300;SDS011;25019;42.626;23.380;2024-02-16T07:42:40;10.37;;;6.83;;
39300;SDS011;25019;42.626;23.380;2024-02-16T07:45:08;8.93;;;5.87;;
39300;SDS011;25019;42.626;23.380;2024-02-16T07:47:34;10.33;;;6.10;;
39300;SDS011;25019;42.626;23.380;2024-02-16T07:50:00;9.73;;;6.07;;
39300;SDS011;25019;42.626;23.380;2024-02-16T07:52:26;9.20;;;6.13;;
39300;SDS011;25019;42.626;23.380;2024-02-16T07:54:52;9.30;;;6.17;;
39300;SDS011;25019;42.626;23.380;2024-02-16T07:57:17;12.90;;;6.90;;
39300;SDS011;25019;42.626;23.380;2024-02-16T07:59:43;10.10;;;6.03;;
39300;SDS011;25019;42.626;23.380;2024-02-16T08:02:09;9.27;;;6.37;;
39300;SDS011;25019;42.626;23.380;2024-02-16T08:04:40;10.67;;;5.97;;
39300;SDS011;25019;42.626;23.380;2024-02-16T08:07:06;10.70;;;5.97;;
39300;SDS011;25019;42.626;23.380;2024-02-16T08:09:33;11.03;;;6.27;;
39300;SDS011;25019;42.626;23.380;2024-02-16T08:11:59;10.73;;;6.40;;
39300;SDS011;25019;42.626;23.380;2024-02-16T08:14:25;12.57;;;6.03;;
39300;SDS011;25019;42.626;23.380;2024-02-16T08:16:51;11.37;;;6.60;;
39300;SDS011;25019;42.626;23.380;2024-02-16T08:19:16;12.50;;;6.33;;
39300;SDS011;25019;42.626;23.380;2024-02-16T08:21:42;12.27;;;6.43;;
39300;SDS011;25019;42.626;23.380;2024-02-16T08:24:08;9.80;;;6.40;;
39300;SDS011;25019;42.626;23.380;2024-02-16T08:26:33;10.53;;;6.73;;
39300;SDS011;25019;42.626;23.380;2024-02-16T08:28:59;8.53;;;6.57;;
39300;SDS011;25019;42.626;23.380;2024-02-16T08:31:24;12.37;;;5.77;;
39300;SDS011;25019;42.626;23.380;2024-02-16T08:33:50;8.37;;;5.33;;
39300;SDS011;25019;42.626;23.380;2024-02-16T08:36:16;7.77;;;6.00;;
39300;SDS011;25019;42.626;23.380;2024-02-16T08:38:42;11.47;;;6.60;;
39300;SDS011;25019;42.626;23.380;2024-02-16T08:41:08;10.00;;;6.40;;
39300;SDS011;25019;42.626;23.380;2024-02-16T08:43:34;12.07;;;6.17;;
39300;SDS011;25019;42.626;23.380;2024-02-16T08:46:00;7.10;;;5.30;;
39300;SDS011;25019;42.626;23.380;2024-02-16T08:48:26;10.87;;;6.30;;
39300;SDS011;25019;42.626;23.380;2024-02-16T08:50:52;10.23;;;6.70;;
39300;SDS011;25019;42.626;23.380;2024-02-16T08:53:17;10.27;;;5.77;;
39300;SDS011;25019;42.626;23.380;2024-02-16T08:55:43;8.97;;;5.50;;
39300;SDS011;25019;42.626;23.380;2024-02-16T08:58:09;12.77;;;6.87;;
39300;SDS011;25019;42.626;23.380;2024-02-16T09:00:35;12.70;;;7.23;;
39300;SDS011;25019;42.626;23.380;2024-02-16T09:03:00;10.17;;;6.50;;
39300;SDS011;25019;42.626;23.380;2024-02-16T09:05:31;11.97;;;5.67;;
39300;SDS011;25019;42.626;23.380;2024-02-16T09:07:57;7.03;;;4.80;;
39300;SDS011;25019;42.626;23.380;2024-02-16T09:10:23;8.37;;;6.20;;
39300;SDS011;25019;42.626;23.380;2024-02-16T09:12:48;10.97;;;6.67;;
39300;SDS011;25019;42.626;23.380;2024-02-16T09:15:14;12.60;;;7.30;;
39300;SDS011;25019;42.626;23.380;2024-02-16T09:17:40;11.73;;;8.30;;
39300;SDS011;25019;42.626;23.380;2024-02-16T09:20:07;14.83;;;7.80;;
39300;SDS011;25019;42.626;23.380;2024-02-16T09:22:33;16.00;;;9.17;;
39300;SDS011;25019;42.626;23.380;2024-02-16T09:24:59;17.60;;;9.83;;
39300;SDS011;25019;42.626;23.380;2024-02-16T09:27:25;12.27;;;8.27;;
39300;SDS011;25019;42.626;23.380;2024-02-16T09:29:51;11.27;;;8.13;;
39300;SDS011;25019;42.626;23.380;2024-02-16T09:32:17;16.03;;;8.27;;
39300;SDS011;25019;42.626;23.380;2024-02-16T09:34:43;13.40;;;7.30;;
39300;SDS011;25019;42.626;23.380;2024-02-16T09:37:09;10.93;;;6.27;;
39300;SDS011;25019;42.626;23.380;2024-02-16T09:39:34;12.53;;;6.60;;
39300;SDS011;25019;42.626;23.380;2024-02-16T09:42:00;11.50;;;5.90;;
39300;SDS011;25019;42.626;23.380;2024-02-16T09:44:26;11.40;;;7.03;;
39300;SDS011;25019;42.626;23.380;2024-02-16T09:46:54;12.67;;;7.00;;
39300;SDS011;25019;42.626;23.380;2024-02-16T09:49:20;14.43;;;7.00;;
39300;SDS011;25019;42.626;23.380;2024-02-16T09:51:46;13.57;;;6.27;;
39300;SDS011;25019;42.626;23.380;2024-02-16T09:54:12;8.93;;;6.13;;
39300;SDS011;25019;42.626;23.380;2024-02-16T09:56:38;8.23;;;5.97;;
39300;SDS011;25019;42.626;23.380;2024-02-16T09:59:03;9.67;;;5.57;;
39300;SDS011;25019;42.626;23.380;2024-02-16T10:01:29;7.80;;;5.10;;
39300;SDS011;25019;42.626;23.380;2024-02-16T10:03:59;6.83;;;4.60;;
39300;SDS011;25019;42.626;23.380;2024-02-16T10:06:31;8.00;;;4.70;;
39300;SDS011;25019;42.626;23.380;2024-02-16T10:08:57;7.23;;;4.83;;
39300;SDS011;25019;42.626;23.380;2024-02-16T10:11:24;6.40;;;4.23;;
39300;SDS011;25019;42.626;23.380;2024-02-16T10:16:25;7.37;;;5.30;;
39300;SDS011;25019;42.626;23.380;2024-02-16T10:18:54;9.00;;;5.80;;
39300;SDS011;25019;42.626;23.380;2024-02-16T10:21:28;8.03;;;5.23;;
39300;SDS011;25019;42.626;23.380;2024-02-16T10:23:59;12.87;;;6.30;;
39300;SDS011;25019;42.626;23.380;2024-02-16T10:26:31;5.83;;;4.47;;
39300;SDS011;25019;42.626;23.380;2024-02-16T10:28:57;7.83;;;6.03;;
39300;SDS011;25019;42.626;23.380;2024-02-16T10:31:24;8.57;;;4.30;;
39300;SDS011;25019;42.626;23.380;2024-02-16T10:33:59;10.27;;;4.43;;
39300;SDS011;25019;42.626;23.380;2024-02-16T10:36:32;4.80;;;3.70;;
39300;SDS011;25019;42.626;23.380;2024-02-16T10:38:59;9.33;;;4.40;;
39300;SDS011;25019;42.626;23.380;2024-02-16T10:41:32;5.30;;;4.23;;
39300;SDS011;25019;42.626;23.380;2024-02-16T10:44:02;5.40;;;3.67;;
39300;SDS011;25019;42.626;23.380;2024-02-16T10:46:29;6.93;;;3.83;;
39300;SDS011;25019;42.626;23.380;2024-02-16T10:48:55;6.10;;;3.97;;
39300;SDS011;25019;42.626;23.380;2024-02-16T10:51:23;6.07;;;4.13;;
39300;SDS011;25019;42.626;23.380;2024-02-16T10:54:03;6.40;;;4.00;;
39300;SDS011;25019;42.626;23.380;2024-02-16T10:59:04;7.77;;;4.30;;
39300;SDS011;25019;42.626;23.380;2024-02-16T11:01:39;4.93;;;3.97;;
39300;SDS011;25019;42.626;23.380;2024-02-16T11:04:07;6.37;;;4.27;;
39300;SDS011;25019;42.626;23.380;2024-02-16T11:06:46;4.87;;;3.37;;
39300;SDS011;25019;42.626;23.380;2024-02-16T11:09:28;4.20;;;3.37;;
39300;SDS011;25019;42.626;23.380;2024-02-16T11:11:58;5.93;;;3.63;;
39300;SDS011;25019;42.626;23.380;2024-02-16T11:14:44;8.00;;;4.03;;
39300;SDS011;25019;42.626;23.380;2024-02-16T11:17:12;6.20;;;3.70;;
39300;SDS011;25019;42.626;23.380;2024-02-16T11:19:42;5.10;;;3.80;;
39300;SDS011;25019;42.626;23.380;2024-02-16T11:22:10;4.43;;;3.57;;
39300;SDS011;25019;42.626;23.380;2024-02-16T11:24:42;7.80;;;3.97;;
39300;SDS011;25019;42.626;23.380;2024-02-16T11:27:12;5.00;;;3.70;;
39300;SDS011;25019;42.626;23.380;2024-02-16T11:29:40;4.73;;;3.80;;
39300;SDS011;25019;42.626;23.380;2024-02-16T11:32:06;5.50;;;3.50;;
39300;SDS011;25019;42.626;23.380;2024-02-16T11:34:33;5.07;;;3.70;;
39300;SDS011;25019;42.626;23.380;2024-02-16T11:37:00;7.27;;;3.27;;
39300;SDS011;25019;42.626;23.380;2024-02-16T11:39:27;4.60;;;3.50;;
39300;SDS011;25019;42.626;23.380;2024-02-16T11:42:07;5.90;;;3.73;;
39300;SDS011;25019;42.626;23.380;2024-02-16T11:44:37;4.93;;;3.13;;
39300;SDS011;25019;42.626;23.380;2024-02-16T11:47:08;4.83;;;3.47;;
39300;SDS011;25019;42.626;23.380;2024-02-16T11:49:38;5.60;;;3.80;;
39300;SDS011;25019;42.626;23.380;2024-02-16T11:52:04;4.57;;;3.60;;
39300;SDS011;25019;42.626;23.380;2024-02-16T11:54:30;5.30;;;3.90;;
39300;SDS011;25019;42.626;23.380;2024-02-16T11:56:57;5.23;;;3.77;;
39300;SDS011;25019;42.626;23.380;2024-02-16T11:59:23;5.83;;;3.73;;
39300;SDS011;25019;42.626;23.380;2024-02-16T12:04:25;6.40;;;4.00;;
39300;SDS011;25019;42.626;23.380;2024-02-16T12:06:53;5.83;;;4.33;;
39300;SDS011;25019;42.626;23.380;2024-02-16T12:09:21;6.67;;;3.80;;
39300;SDS011;25019;42.626;23.380;2024-02-16T12:11:50;6.03;;;3.80;;
39300;SDS011;25019;42.626;23.380;2024-02-16T12:14:18;6.57;;;4.00;;
39300;SDS011;25019;42.626;23.380;2024-02-16T12:19:20;7.33;;;4.30;;
39300;SDS011;25019;42.626;23.380;2024-02-16T12:21:57;10.40;;;4.07;;
39300;SDS011;25019;42.626;23.380;2024-02-16T12:24:23;4.90;;;3.80;;
39300;SDS011;25019;42.626;23.380;2024-02-16T12:26:49;9.73;;;4.43;;
39300;SDS011;25019;42.626;23.380;2024-02-16T12:29:15;7.33;;;4.23;;
39300;SDS011;25019;42.626;23.380;2024-02-16T12:31:42;5.37;;;4.13;;
39300;SDS011;25019;42.626;23.380;2024-02-16T12:34:09;7.47;;;4.00;;
39300;SDS011;25019;42.626;23.380;2024-02-16T12:36:36;5.23;;;4.20;;
39300;SDS011;25019;42.626;23.380;2024-02-16T12:39:04;8.20;;;4.33;;
39300;SDS011;25019;42.626;23.380;2024-02-16T12:41:30;7.13;;;4.40;;
39300;SDS011;25019;42.626;23.380;2024-02-16T12:43:56;10.10;;;4.57;;
39300;SDS011;25019;42.626;23.380;2024-02-16T12:46:22;6.47;;;4.13;;
39300;SDS011;25019;42.626;23.380;2024-02-16T12:48:47;6.20;;;3.77;;
39300;SDS011;25019;42.626;23.380;2024-02-16T12:51:13;6.33;;;3.83;;
39300;SDS011;25019;42.626;23.380;2024-02-16T12:53:39;5.77;;;4.33;;
39300;SDS011;25019;42.626;23.380;2024-02-16T12:56:08;6.70;;;3.70;;
39300;SDS011;25019;42.626;23.380;2024-02-16T12:58:37;5.03;;;4.00;;
39300;SDS011;25019;42.626;23.380;2024-02-16T13:01:04;6.00;;;4.10;;
39300;SDS011;25019;42.626;23.380;2024-02-16T13:03:37;7.00;;;4.87;;
39300;SDS011;25019;42.626;23.380;2024-02-16T13:06:04;5.70;;;4.37;;
39300;SDS011;25019;42.626;23.380;2024-02-16T13:08:30;7.30;;;5.20;;
39300;SDS011;25019;42.626;23.380;2024-02-16T13:10:57;6.50;;;4.40;;
39300;SDS011;25019;42.626;23.380;2024-02-16T13:13:24;6.87;;;4.50;;
39300;SDS011;25019;42.626;23.380;2024-02-16T13:15:50;17.97;;;11.33;;
39300;SDS011;25019;42.626;23.380;2024-02-16T13:18:16;7.40;;;5.03;;
39300;SDS011;25019;42.626;23.380;2024-02-16T13:20:46;6.10;;;4.47;;
39300;SDS011;25019;42.626;23.380;2024-02-16T13:23:12;6.07;;;4.97;;
39300;SDS011;25019;42.626;23.380;2024-02-16T13:25:38;6.50;;;4.93;;
39300;SDS011;25019;42.626;23.380;2024-02-16T13:28:04;7.97;;;4.60;;
39300;SDS011;25019;42.626;23.380;2024-02-16T13:30:30;5.63;;;4.33;;
39300;SDS011;25019;42.626;23.380;2024-02-16T13:32:56;7.70;;;4.33;;
39300;SDS011;25019;42.626;23.380;2024-02-16T13:35:22;6.53;;;4.93;;
39300;SDS011;25019;42.626;23.380;2024-02-16T13:37:48;6.10;;;4.97;;
39300;SDS011;25019;42.626;23.380;2024-02-16T13:40:15;10.60;;;4.73;;
39300;SDS011;25019;42.626;23.380;2024-02-16T13:42:42;7.73;;;4.93;;
39300;SDS011;25019;42.626;23.380;2024-02-16T13:45:08;11.03;;;5.00;;
39300;SDS011;25019;42.626;23.380;2024-02-16T13:47:35;7.23;;;4.33;;
39300;SDS011;25019;42.626;23.380;2024-02-16T13:50:01;6.40;;;4.70;;
39300;SDS011;25019;42.626;23.380;2024-02-16T13:52:27;6.37;;;4.93;;
39300;SDS011;25019;42.626;23.380;2024-02-16T13:54:53;6.37;;;4.70;;
39300;SDS011;25019;42.626;23.380;2024-02-16T13:57:19;8.07;;;4.67;;
39300;SDS011;25019;42.626;23.380;2024-02-16T13:59:45;6.87;;;4.70;;
39300;SDS011;25019;42.626;23.380;2024-02-16T14:02:12;5.83;;;4.50;;
39300;SDS011;25019;42.626;23.380;2024-02-16T14:04:38;8.03;;;4.53;;
39300;SDS011;25019;42.626;23.380;2024-02-16T14:07:04;6.37;;;5.10;;
39300;SDS011;25019;42.626;23.380;2024-02-16T14:09:30;7.23;;;4.93;;
39300;SDS011;25019;42.626;23.380;2024-02-16T14:11:56;6.03;;;4.63;;
39300;SDS011;25019;42.626;23.380;2024-02-16T14:14:27;6.27;;;4.70;;
39300;SDS011;25019;42.626;23.380;2024-02-16T14:16:53;7.83;;;4.80;;
39300;SDS011;25019;42.626;23.380;2024-02-16T14:19:19;6.20;;;4.53;;
39300;SDS011;25019;42.626;23.380;2024-02-16T14:21:45;8.77;;;4.87;;
39300;SDS011;25019;42.626;23.380;2024-02-16T14:24:12;7.87;;;4.73;;
39300;SDS011;25019;42.626;23.380;2024-02-16T14:26:39;7.63;;;4.30;;
39300;SDS011;25019;42.626;23.380;2024-02-16T14:29:05;8.00;;;4.63;;
39300;SDS011;25019;42.626;23.380;2024-02-16T14:31:34;9.10;;;5.00;;
39300;SDS011;25019;42.626;23.380;2024-02-16T14:34:00;10.47;;;4.53;;
39300;SDS011;25019;42.626;23.380;2024-02-16T14:36:26;8.40;;;5.40;;
39300;SDS011;25019;42.626;23.380;2024-02-16T14:38:51;7.73;;;4.57;;